Latest Weather Observations for Cabramurra

IDN60901

Issued at 11:01 am EST Tuesday 26 May 2020 (issued every 10 minutes, with the page automatically refreshed every 10 minutes)

About weather observations | Map of Canberra area stations | Latest observations for Canberra area | Other Formats
Station Details ID: 072161 Name: CABRAMURRA SMHEA AWS Lat: -35.94 Lon: 148.38 Height: 1482.4 m
Data from the previous 72 hours. | See also: Recent months at Cabramurra
Date/Time
EST
Temp
°C
App
Temp
°C
Dew
Point
°C
Rel
Hum
%
Delta-T
°C
Wind Press
QNH
hPa
Press
MSL
hPa
Rain since
9am
mm
Dir  Spd
km/h
Gust
km/h
Spd
kts
Gust
kts
26/11:00am 7.4 1.1 5.7 89 0.8 ESE 28 39 15 21 - - 0.0
26/10:30am 6.8 -0.5 5.6 92 0.6 ESE 33 46 18 25 - - 0.0
26/10:00am 6.2 -2.7 5.3 94 0.4 ESE 41 56 22 30 - - 0.0
26/09:32am 6.2 -3.0 5.5 95 0.3 ESE 43 61 23 33 - - 0.0
26/09:30am 6.0 -3.5 5.1 94 0.4 ESE 44 61 24 33 - - 0.0
26/09:00am 5.2 -4.6 5.1 99 0.0 ESE 46 61 25 33 - - 0.0
26/08:30am 4.4 -6.4 4.3 99 0.0 ESE 50 59 27 32 - - 0.0
26/08:00am 4.1 -7.5 4.0 99 0.0 ESE 54 69 29 37 - - 0.0
26/07:30am 3.7 -7.6 3.6 99 0.0 ESE 52 65 28 35 - - 0.0
26/07:00am 3.5 -8.2 3.4 99 0.0 ESE 54 67 29 36 - - 0.0
26/06:30am 3.2 -8.5 3.1 99 0.0 ESE 54 65 29 35 - - 0.0
26/06:00am 3.3 -6.9 3.2 99 0.0 ESE 46 59 25 32 - - 0.0
26/05:30am 3.7 -6.8 3.6 99 0.0 ESE 48 61 26 33 - - 0.0
26/05:00am 3.2 -7.8 3.1 99 0.0 ESE 50 61 27 33 - - 0.0
26/04:30am 3.6 -7.7 3.5 99 0.0 ESE 52 63 28 34 - - 0.0
26/04:00am 2.6 -9.2 2.5 99 0.0 ESE 54 65 29 35 - - 0.0
26/03:30am 2.6 -8.9 2.5 99 0.0 ESE 52 61 28 33 - - 0.0
26/03:00am 2.0 -9.6 1.9 99 0.0 ESE 52 61 28 33 - - 0.0
26/02:30am 1.8 -9.4 1.7 99 0.0 ESE 50 65 27 35 - - 0.0
26/02:21am 1.9 -9.3 1.8 99 0.0 ESE 50 69 27 37 - - 0.0
26/02:00am 2.1 -9.9 1.7 97 0.2 ESE 54 69 29 37 - - 0.0
26/01:30am 2.2 -9.4 1.6 96 0.3 ESE 52 63 28 34 - - 0.0
26/01:00am 1.9 -9.3 1.8 99 0.0 ESE 50 65 27 35 - - 0.0
26/12:30am 1.8 -7.3 1.7 99 0.0 ESE 39 54 21 29 - - 0.0
26/12:00am 1.9 -7.6 1.8 99 0.0 ESE 41 65 22 35 - - 0.0
 
Date/Time
EST
Temp
°C
App
Temp
°C
Dew
Point
°C
Rel
Hum
%
Delta-T
°C
Wind Press
QNH
hPa
Press
MSL
hPa
Rain since
9am
mm
Dir  Spd
km/h
Gust
km/h
Spd
kts
Gust
kts
25/11:39pm 1.9 -8.0 1.8 99 0.0 ESE 43 61 23 33 - - 0.0
25/11:30pm 2.0 -8.4 1.9 99 0.0 ESE 46 59 25 32 - - 0.0
25/11:02pm 1.8 -8.7 1.7 99 0.0 ESE 46 65 25 35 - - 0.0
25/11:00pm 1.8 -9.0 1.7 99 0.0 ESE 48 65 26 35 - - 0.0
25/10:30pm 1.7 -9.9 1.6 99 0.0 ESE 52 70 28 38 - - 0.0
25/10:00pm 1.6 -9.7 1.3 98 0.1 ESE 50 70 27 38 - - 0.0
25/09:52pm 1.7 -9.2 1.1 96 0.3 ESE 48 67 26 36 - - 0.0
25/09:47pm 1.7 -8.5 1.0 95 0.3 SE 44 67 24 36 - - 0.0
25/09:30pm 1.7 -5.9 0.8 94 0.4 SE 30 48 16 26 - - 0.0
25/09:00pm 2.0 -7.6 1.1 94 0.4 SE 41 61 22 33 - - 0.0
25/08:34pm 2.4 -4.9 2.3 99 0.0 SE 30 48 16 26 - - 0.0
25/08:30pm 2.5 -5.2 2.4 99 0.0 SE 32 48 17 26 - - 0.0
25/08:00pm 2.8 -4.5 2.2 96 0.3 SE 30 54 16 29 - - 0.0
25/07:59pm 2.8 -4.5 2.2 96 0.3 SE 30 54 16 29 - - 0.0
25/07:30pm 2.7 -5.0 2.1 96 0.3 SE 32 44 17 24 - - 0.0
25/07:13pm 2.8 -4.2 1.9 94 0.4 SE 28 46 15 25 - - 0.0
25/07:00pm 2.9 -5.4 2.2 95 0.3 SE 35 48 19 26 - - 0.0
25/06:30pm 3.1 -3.8 2.5 96 0.3 SE 28 43 15 23 - - 0.0
25/06:00pm 3.3 -4.9 2.7 96 0.3 SE 35 52 19 28 - - 0.0
25/05:35pm 3.3 -4.5 3.0 98 0.1 SE 33 52 18 28 - - 0.0
25/05:30pm 3.3 -4.8 3.0 98 0.1 SE 35 52 19 28 - - 0.0
25/05:00pm 3.5 -4.6 3.2 98 0.1 SE 35 54 19 29 - - 0.0
25/04:30pm 3.8 -5.9 3.1 95 0.3 SE 43 65 23 35 - - 0.0
25/04:00pm 4.4 -3.8 2.9 90 0.7 SE 35 54 19 29 - - 0.0
25/03:30pm 4.8 -3.0 3.0 88 0.8 SE 33 48 18 26 - - 0.0
25/03:00pm 5.0 -0.4 2.5 84 1.1 SE 20 37 11 20 - - 0.0
25/02:30pm 5.6 -1.7 2.6 81 1.4 SE 30 52 16 28 - - 0.0
25/02:00pm 5.4 -1.9 2.4 81 1.3 SE 30 54 16 29 - - 0.0
25/01:34pm 5.1 -2.8 2.1 81 1.3 SE 33 52 18 28 - - 0.0
25/01:30pm 5.1 -3.2 1.9 80 1.4 SE 35 52 19 28 - - 0.0
25/01:00pm 4.8 -4.7 1.8 81 1.3 SE 41 61 22 33 - - 0.0
25/12:30pm 4.5 -3.8 2.0 84 1.1 SE 35 54 19 29 - - 0.0
25/12:20pm 4.3 -4.8 1.8 84 1.1 SE 39 57 21 31 - - 0.0
25/12:00pm 3.9 -4.6 1.1 82 1.2 SE 35 48 19 26 - - 0.0
25/11:47am 3.5 -4.9 1.4 86 0.9 SE 35 56 19 30 - - 0.0
25/11:30am 3.2 -5.6 1.1 86 0.9 SE 37 54 20 29 - - 0.0
25/11:00am 2.9 -7.2 0.3 83 1.1 SE 43 61 23 33 - - 0.0
25/10:30am 3.5 -5.5 0.4 80 1.3 SE 37 57 20 31 - - 0.0
25/10:00am 3.1 -6.6 0.5 83 1.1 SE 41 70 22 38 - - 0.0
25/09:30am 2.6 -5.7 0.0 83 1.1 SE 33 59 18 32 - - 0.0
25/09:00am 2.5 -6.0 1.2 91 0.5 SE 35 57 19 31 - - 0.0
25/08:30am 2.6 -5.4 0.5 86 0.9 SE 32 54 17 29 - - -
25/08:00am 2.3 -6.4 1.7 96 0.3 SE 37 56 20 30 - - -
25/07:30am 2.4 -7.2 1.1 91 0.5 SE 41 61 22 33 - - -
25/07:00am 2.3 -8.6 1.1 92 0.5 SE 48 70 26 38 - - -
25/06:30am 2.1 -9.2 1.1 93 0.4 SE 50 70 27 38 - - -
25/06:00am 1.9 -9.8 1.0 94 0.4 SE 52 74 28 40 - - -
25/05:30am 2.1 -10.4 1.1 93 0.4 SE 56 80 30 43 - - -
25/05:00am 1.9 -10.2 0.7 92 0.5 SE 54 76 29 41 - - -
25/04:30am 1.9 -9.5 0.4 90 0.6 SE 50 76 27 41 - - -
25/04:00am 1.7 -8.4 0.5 92 0.5 SE 43 78 23 42 - - -
25/03:30am 1.4 -9.7 -0.1 90 0.6 SE 48 70 26 38 - - -
25/03:00am 1.6 -7.9 -1.1 82 1.1 SE 39 61 21 33 - - 0.0
25/02:30am 1.9 -6.2 0.0 87 0.8 SE 32 54 17 29 - - -
25/02:00am 1.9 -6.6 0.7 92 0.5 SE 35 54 19 29 - - -
25/01:30am 1.8 -6.1 0.8 93 0.4 SE 32 46 17 25 - - -
25/01:05am 1.8 -6.2 0.3 90 0.6 SE 32 50 17 27 - - -
25/01:00am 1.8 -6.8 0.2 89 0.7 SE 35 50 19 27 - - -
25/12:30am 2.2 -6.3 0.9 91 0.5 SE 35 56 19 30 - - -
25/12:00am 2.6 -5.2 1.4 92 0.5 SE 32 57 17 31 - - -
 
Date/Time
EST
Temp
°C
App
Temp
°C
Dew
Point
°C
Rel
Hum
%
Delta-T
°C
Wind Press
QNH
hPa
Press
MSL
hPa
Rain since
9am
mm
Dir  Spd
km/h
Gust
km/h
Spd
kts
Gust
kts
24/11:30pm 2.6 -4.8 1.9 95 0.3 SSE 30 48 16 26 - - -
24/11:28pm 2.6 -4.4 1.7 94 0.4 SSE 28 48 15 26 - - -
24/11:00pm 2.7 -3.6 1.4 91 0.6 SSE 24 46 13 25 - - -
24/10:30pm 2.8 -4.3 1.5 91 0.6 SSE 28 46 15 25 - - -
24/10:17pm 2.7 -4.3 1.7 93 0.4 SSE 28 50 15 27 - - -
24/10:00pm 2.7 -3.6 1.7 93 0.4 SSE 24 43 13 23 - - -
24/09:30pm 2.9 -3.4 1.3 89 0.7 SSE 24 41 13 22 - - -
24/09:03pm 3.0 -4.1 1.4 89 0.7 S 28 46 15 25 - - -
24/09:00pm 3.0 -3.3 1.4 89 0.7 S 24 46 13 25 - - -
24/08:30pm 3.1 -4.0 1.2 87 0.8 S 28 44 15 24 - - -
24/08:00pm 2.8 -2.3 0.7 86 0.9 S 17 26 9 14 - - -
24/07:30pm 2.6 -3.0 0.2 84 1.0 SSW 19 30 10 16 - - -
24/07:00pm 2.5 -4.4 -0.1 83 1.1 S 26 43 14 23 - - -
24/06:30pm 2.5 -4.1 -0.4 81 1.2 S 24 41 13 22 - - -
24/06:00pm 2.2 -3.7 -0.7 81 1.2 S 20 35 11 19 - - -
24/02:30pm 4.2 -2.6 -1.6 66 2.3 SSE 24 37 13 20 - - -
24/02:02pm 4.7 -2.9 -2.2 61 2.7 SSE 28 46 15 25 - - -
24/02:00pm 5.0 -2.2 -1.7 62 2.7 SSE 26 46 14 25 - - -
24/01:30pm 5.8 - -0.9 62 2.8 - - - - - - - -
24/12:00pm 6.3 0.7 1.0 69 2.3 SSE 20 39 11 21 - - 0.0
24/11:30am 5.8 -1.0 0.8 70 2.2 SSE 26 41 14 22 - - 0.0
24/11:00am 5.6 -0.9 0.4 69 2.2 SSE 24 39 13 21 - - 0.0
24/10:34am 4.6 -3.5 -0.2 71 2.0 SE 32 50 17 27 - - 0.0
24/10:30am 4.4 -3.9 -0.6 70 2.1 SE 33 50 18 27 - - 0.0
24/10:00am 4.0 -4.1 -0.4 73 1.8 SE 32 50 17 27 - - 0.0
24/09:41am 4.0 -4.3 -0.4 73 1.8 SE 33 56 18 30 - - 0.0
24/09:30am 3.8 -3.9 -0.2 75 1.7 SE 30 43 16 23 - - 0.0
24/09:00am 3.3 -4.8 -0.3 77 1.5 SSE 32 50 17 27 - - 0.6
24/08:30am 3.1 -4.2 0.2 81 1.2 SSE 28 48 15 26 - - 0.6
24/08:18am 3.1 -5.0 0.0 80 1.3 SSE 32 52 17 28 - - 0.6
24/08:00am 2.9 -4.4 0.3 83 1.1 SE 28 43 15 23 - - 0.6
24/07:47am 2.9 -5.7 0.3 83 1.1 SE 35 54 19 29 - - 0.6
24/07:30am 2.9 -5.3 0.5 84 1.0 SE 33 46 18 25 - - 0.6
24/07:00am 2.9 -5.3 0.5 84 1.0 SSE 33 59 18 32 - - 0.6
24/06:30am 3.1 -5.8 0.5 83 1.1 SE 37 63 20 34 - - 0.6
24/06:00am 3.3 -6.3 1.0 85 1.0 SE 41 59 22 32 - - 0.6
24/05:31am 3.2 -6.1 0.8 84 1.0 SE 39 57 21 31 - - 0.6
24/05:30am 3.3 -6.3 0.9 84 1.0 SE 41 57 22 31 - - 0.6
24/05:00am 3.1 -5.4 1.0 86 0.9 SE 35 54 19 29 - - 0.6
24/04:30am 3.0 -6.6 1.1 87 0.8 SE 41 59 22 32 - - 0.6
24/04:22am 2.9 -6.3 1.0 87 0.8 SE 39 59 21 32 - - 0.6
24/04:00am 2.9 -5.7 0.3 83 1.1 SE 35 52 19 28 - - 0.6
24/03:36am 3.0 -5.2 0.2 82 1.2 SSE 33 52 18 28 - - 0.6
24/03:30am 2.8 -5.4 0.5 85 1.0 SE 33 48 18 26 - - 0.6
24/03:00am 2.9 -6.4 0.8 86 0.9 SE 39 59 21 32 - - 0.6
24/02:54am 2.9 -6.0 0.8 86 0.9 SE 37 59 20 32 - - 0.6
24/02:30am 3.0 -6.3 0.6 84 1.0 SE 39 50 21 27 - - 0.6
24/02:01am 3.1 -5.8 0.7 84 1.0 SE 37 57 20 31 - - 0.6
24/02:00am 3.0 -5.9 0.6 84 1.0 SE 37 52 20 28 - - 0.6
24/01:30am 2.8 -4.0 1.0 88 0.8 SE 26 35 14 19 - - 0.6
24/01:00am 3.0 -4.5 1.1 87 0.8 SE 30 41 16 22 - - 0.6
24/12:30am 3.2 -4.7 1.1 86 0.9 SE 32 44 17 24 - - 0.6
24/12:14am 3.3 -3.8 1.2 86 0.9 SSE 28 46 15 25 - - 0.6
24/12:00am 3.1 -4.0 1.2 87 0.8 SSE 28 41 15 22 - - 0.6
 
Date/Time
EST
Temp
°C
App
Temp
°C
Dew
Point
°C
Rel
Hum
%
Delta-T
°C
Wind Press
QNH
hPa
Press
MSL
hPa
Rain since
9am
mm
Dir  Spd
km/h
Gust
km/h
Spd
kts
Gust
kts
23/11:30pm 3.1 -4.0 1.3 88 0.8 SSE 28 52 15 28 - - 0.6
23/11:04pm 3.1 -4.0 1.5 89 0.7 SSE 28 46 15 25 - - 0.6
23/11:00pm 3.1 -4.8 1.3 88 0.8 SSE 32 43 17 23 - - 0.6
23/10:50pm 3.1 -4.0 1.5 89 0.7 SE 28 46 15 25 - - 0.6
23/10:30pm 3.1 -4.4 1.5 89 0.7 SE 30 41 16 22 - - 0.6
23/10:13pm 3.3 -3.8 1.5 88 0.8 SE 28 48 15 26 - - 0.6
23/10:00pm 3.3 -2.6 1.7 89 0.7 SE 22 32 12 17 - - 0.6
23/09:30pm 3.7 -2.9 2.1 89 0.7 SE 26 35 14 19 - - 0.6
23/09:00pm 3.2 -0.4 3.1 99 0.0 SSE 11 20 6 11 - - 0.6
23/08:30pm 2.5 -2.0 2.4 99 0.0 SW 15 20 8 11 - - 0.6
23/08:00pm 2.5 -2.0 2.4 99 0.0 SSW 15 20 8 11 - - 0.6
23/07:30pm 2.8 -1.6 2.7 99 0.0 SW 15 20 8 11 - - 0.6
23/07:00pm 2.8 -0.5 2.7 99 0.0 WSW 9 11 5 6 - - 0.6
23/06:30pm 3.0 -0.6 3.0 100 0.0 SSW 11 19 6 10 - - 0.6
23/06:00pm 2.9 -1.1 2.9 100 0.0 SSW 13 19 7 10 - - 0.6
23/05:30pm 3.0 -0.6 3.0 100 0.0 SW 11 17 6 9 - - 0.6
23/05:00pm 3.0 -1.4 2.9 99 0.0 SSW 15 22 8 12 - - 0.6
23/04:30pm 2.9 -0.3 2.8 99 0.0 W 9 13 5 7 - - 0.6
23/04:00pm 3.3 0.7 3.2 99 0.0 NW 6 11 3 6 - - 0.6
23/03:30pm 4.3 0.9 4.2 99 0.0 SSW 11 20 6 11 - - 0.6
23/03:00pm 3.5 1.7 3.4 99 0.0 W 2 7 1 4 - - 0.6
23/02:30pm 3.9 0.8 3.8 99 0.0 SW 9 15 5 8 - - 0.6
23/02:00pm 3.0 -0.2 2.9 99 0.0 WNW 9 11 5 6 - - 0.6
23/01:30pm 3.1 -0.9 3.0 99 0.0 WNW 13 17 7 9 - - 0.6
23/01:00pm 4.2 1.8 4.1 99 0.0 WNW 6 9 3 5 - - 0.6
23/12:30pm 4.8 1.9 4.7 99 0.0 SW 9 15 5 8 - - 0.6
23/12:00pm 5.3 2.5 5.2 99 0.0 SW 9 15 5 8 - - 0.6
23/11:30am 5.1 1.7 4.2 94 0.4 S 11 19 6 10 - - 0.6

Latest Capital City Observations: Canberra | Sydney | Melbourne | Brisbane | Adelaide | Perth | Hobart | Darwin

Other formats

Comma delimited format used in spreadsheet applications
http://www.bom.gov.au/fwo/IDN60903/IDN60903.95916.axf

JavaScript Object Notation format (JSON) in row-major order
http://www.bom.gov.au/fwo/IDN60903/IDN60903.95916.json

Data quality

Most of these data are generated automatically and are frequently updated. Quality checks on data are not normally performed. It is possible for incorrect values to appear. Refer to information at About Latest Weather Observations and please check the disclaimer before using these data.